sensor_id;sensor_type;location;lat;lon;timestamp;P1;durP1;ratioP1;P2;durP2;ratioP2
11131;SDS011;5620;53.570;9.718;2022-10-18T00:00:19;9.05;;;5.82;;
11131;SDS011;5620;53.570;9.718;2022-10-18T00:02:47;8.83;;;5.60;;
11131;SDS011;5620;53.570;9.718;2022-10-18T00:05:14;7.13;;;6.07;;
11131;SDS011;5620;53.570;9.718;2022-10-18T00:07:41;11.93;;;6.43;;
11131;SDS011;5620;53.570;9.718;2022-10-18T00:10:10;9.38;;;6.43;;
11131;SDS011;5620;53.570;9.718;2022-10-18T00:12:38;11.23;;;6.97;;
11131;SDS011;5620;53.570;9.718;2022-10-18T00:15:05;10.48;;;6.43;;
11131;SDS011;5620;53.570;9.718;2022-10-18T00:17:35;7.28;;;6.28;;
11131;SDS011;5620;53.570;9.718;2022-10-18T00:20:05;10.15;;;6.60;;
11131;SDS011;5620;53.570;9.718;2022-10-18T00:22:33;10.48;;;7.07;;
11131;SDS011;5620;53.570;9.718;2022-10-18T00:25:17;11.75;;;7.22;;
11131;SDS011;5620;53.570;9.718;2022-10-18T00:27:45;10.23;;;7.27;;
11131;SDS011;5620;53.570;9.718;2022-10-18T00:30:13;13.27;;;6.45;;
11131;SDS011;5620;53.570;9.718;2022-10-18T00:32:41;12.93;;;7.15;;
11131;SDS011;5620;53.570;9.718;2022-10-18T00:35:06;11.38;;;6.63;;
11131;SDS011;5620;53.570;9.718;2022-10-18T00:37:34;8.38;;;7.10;;
11131;SDS011;5620;53.570;9.718;2022-10-18T00:40:03;15.55;;;7.32;;
11131;SDS011;5620;53.570;9.718;2022-10-18T00:42:32;10.18;;;7.43;;
11131;SDS011;5620;53.570;9.718;2022-10-18T00:45:14;7.57;;;6.70;;
11131;SDS011;5620;53.570;9.718;2022-10-18T00:48:01;12.15;;;6.95;;
11131;SDS011;5620;53.570;9.718;2022-10-18T00:50:32;13.05;;;7.53;;
11131;SDS011;5620;53.570;9.718;2022-10-18T00:53:01;13.68;;;7.10;;
11131;SDS011;5620;53.570;9.718;2022-10-18T00:55:32;11.05;;;7.72;;
11131;SDS011;5620;53.570;9.718;2022-10-18T00:58:00;8.73;;;7.43;;
11131;SDS011;5620;53.570;9.718;2022-10-18T01:00:29;11.85;;;7.30;;
11131;SDS011;5620;53.570;9.718;2022-10-18T01:02:59;9.77;;;7.10;;
11131;SDS011;5620;53.570;9.718;2022-10-18T01:05:26;13.93;;;7.38;;
11131;SDS011;5620;53.570;9.718;2022-10-18T01:14:04;8.43;;;7.07;;
11131;SDS011;5620;53.570;9.718;2022-10-18T01:17:02;11.55;;;8.48;;
11131;SDS011;5620;53.570;9.718;2022-10-18T01:22:42;11.85;;;7.60;;
11131;SDS011;5620;53.570;9.718;2022-10-18T01:31:26;15.87;;;6.93;;
11131;SDS011;5620;53.570;9.718;2022-10-18T01:34:17;11.20;;;7.40;;
11131;SDS011;5620;53.570;9.718;2022-10-18T01:36:48;12.07;;;7.53;;
11131;SDS011;5620;53.570;9.718;2022-10-18T01:39:23;17.48;;;7.22;;
11131;SDS011;5620;53.570;9.718;2022-10-18T01:41:54;9.25;;;7.70;;
11131;SDS011;5620;53.570;9.718;2022-10-18T01:44:28;15.32;;;7.60;;
11131;SDS011;5620;53.570;9.718;2022-10-18T01:47:00;12.27;;;7.07;;
11131;SDS011;5620;53.570;9.718;2022-10-18T01:49:29;13.63;;;7.78;;
11131;SDS011;5620;53.570;9.718;2022-10-18T01:51:56;16.67;;;8.45;;
11131;SDS011;5620;53.570;9.718;2022-10-18T01:54:33;9.65;;;8.25;;
11131;SDS011;5620;53.570;9.718;2022-10-18T02:05:02;17.67;;;8.88;;
11131;SDS011;5620;53.570;9.718;2022-10-18T02:13:55;16.05;;;9.50;;
11131;SDS011;5620;53.570;9.718;2022-10-18T02:22:01;10.55;;;8.82;;
11131;SDS011;5620;53.570;9.718;2022-10-18T02:24:32;16.40;;;9.00;;
11131;SDS011;5620;53.570;9.718;2022-10-18T02:27:04;16.15;;;9.27;;
11131;SDS011;5620;53.570;9.718;2022-10-18T02:29:31;14.83;;;8.70;;
11131;SDS011;5620;53.570;9.718;2022-10-18T02:32:08;17.50;;;9.57;;
11131;SDS011;5620;53.570;9.718;2022-10-18T02:37:47;11.95;;;9.35;;
11131;SDS011;5620;53.570;9.718;2022-10-18T02:40:14;11.63;;;9.32;;
11131;SDS011;5620;53.570;9.718;2022-10-18T02:42:46;17.48;;;10.02;;
11131;SDS011;5620;53.570;9.718;2022-10-18T02:45:15;21.05;;;9.38;;
11131;SDS011;5620;53.570;9.718;2022-10-18T02:47:45;24.60;;;9.82;;
11131;SDS011;5620;53.570;9.718;2022-10-18T02:50:12;15.15;;;9.60;;
11131;SDS011;5620;53.570;9.718;2022-10-18T02:52:39;17.08;;;9.45;;
11131;SDS011;5620;53.570;9.718;2022-10-18T02:55:06;12.10;;;9.48;;
11131;SDS011;5620;53.570;9.718;2022-10-18T02:57:36;21.52;;;9.23;;
11131;SDS011;5620;53.570;9.718;2022-10-18T03:00:03;17.20;;;10.18;;
11131;SDS011;5620;53.570;9.718;2022-10-18T03:02:31;19.25;;;9.73;;
11131;SDS011;5620;53.570;9.718;2022-10-18T03:04:59;13.27;;;9.63;;
11131;SDS011;5620;53.570;9.718;2022-10-18T03:07:27;20.23;;;9.57;;
11131;SDS011;5620;53.570;9.718;2022-10-18T03:09:56;16.23;;;9.38;;
11131;SDS011;5620;53.570;9.718;2022-10-18T03:12:23;15.13;;;9.95;;
11131;SDS011;5620;53.570;9.718;2022-10-18T03:14:51;18.95;;;9.32;;
11131;SDS011;5620;53.570;9.718;2022-10-18T03:17:17;16.67;;;9.30;;
11131;SDS011;5620;53.570;9.718;2022-10-18T03:19:44;13.98;;;9.50;;
11131;SDS011;5620;53.570;9.718;2022-10-18T03:22:09;22.80;;;9.73;;
11131;SDS011;5620;53.570;9.718;2022-10-18T03:24:36;14.97;;;9.40;;
11131;SDS011;5620;53.570;9.718;2022-10-18T03:27:03;22.63;;;10.27;;
11131;SDS011;5620;53.570;9.718;2022-10-18T03:29:31;19.48;;;9.30;;
11131;SDS011;5620;53.570;9.718;2022-10-18T03:31:57;11.85;;;10.05;;
11131;SDS011;5620;53.570;9.718;2022-10-18T03:34:22;18.17;;;9.82;;
11131;SDS011;5620;53.570;9.718;2022-10-18T03:36:49;21.05;;;10.30;;
11131;SDS011;5620;53.570;9.718;2022-10-18T03:39:17;16.65;;;10.85;;
11131;SDS011;5620;53.570;9.718;2022-10-18T03:41:45;18.33;;;10.55;;
11131;SDS011;5620;53.570;9.718;2022-10-18T03:44:11;15.07;;;10.50;;
11131;SDS011;5620;53.570;9.718;2022-10-18T03:46:38;21.05;;;10.25;;
11131;SDS011;5620;53.570;9.718;2022-10-18T03:49:06;16.02;;;10.57;;
11131;SDS011;5620;53.570;9.718;2022-10-18T03:51:32;17.70;;;9.23;;
11131;SDS011;5620;53.570;9.718;2022-10-18T03:53:57;16.50;;;9.33;;
11131;SDS011;5620;53.570;9.718;2022-10-18T03:56:24;16.90;;;9.00;;
11131;SDS011;5620;53.570;9.718;2022-10-18T03:58:52;15.95;;;9.82;;
11131;SDS011;5620;53.570;9.718;2022-10-18T04:01:19;18.70;;;9.98;;
11131;SDS011;5620;53.570;9.718;2022-10-18T04:03:45;12.50;;;8.05;;
11131;SDS011;5620;53.570;9.718;2022-10-18T04:06:13;19.75;;;9.32;;
11131;SDS011;5620;53.570;9.718;2022-10-18T04:08:41;15.50;;;10.00;;
11131;SDS011;5620;53.570;9.718;2022-10-18T04:11:09;19.08;;;9.27;;
11131;SDS011;5620;53.570;9.718;2022-10-18T04:13:35;14.73;;;10.15;;
11131;SDS011;5620;53.570;9.718;2022-10-18T04:16:03;16.80;;;10.00;;
11131;SDS011;5620;53.570;9.718;2022-10-18T04:18:31;18.27;;;10.20;;
11131;SDS011;5620;53.570;9.718;2022-10-18T04:20:58;12.77;;;9.82;;
11131;SDS011;5620;53.570;9.718;2022-10-18T04:23:25;20.42;;;10.73;;
11131;SDS011;5620;53.570;9.718;2022-10-18T04:25:50;29.83;;;11.63;;
11131;SDS011;5620;53.570;9.718;2022-10-18T04:28:20;20.85;;;11.23;;
11131;SDS011;5620;53.570;9.718;2022-10-18T04:30:50;25.40;;;11.52;;
11131;SDS011;5620;53.570;9.718;2022-10-18T04:33:17;20.50;;;11.50;;
11131;SDS011;5620;53.570;9.718;2022-10-18T04:35:49;22.90;;;11.02;;
11131;SDS011;5620;53.570;9.718;2022-10-18T04:38:18;38.90;;;11.70;;
11131;SDS011;5620;53.570;9.718;2022-10-18T04:40:49;32.53;;;12.52;;
11131;SDS011;5620;53.570;9.718;2022-10-18T04:43:14;19.35;;;11.73;;
11131;SDS011;5620;53.570;9.718;2022-10-18T04:45:46;18.38;;;10.57;;
11131;SDS011;5620;53.570;9.718;2022-10-18T04:48:13;21.83;;;11.13;;
11131;SDS011;5620;53.570;9.718;2022-10-18T04:50:39;18.40;;;11.57;;
11131;SDS011;5620;53.570;9.718;2022-10-18T04:53:07;16.35;;;10.18;;
11131;SDS011;5620;53.570;9.718;2022-10-18T04:55:33;19.17;;;11.15;;
11131;SDS011;5620;53.570;9.718;2022-10-18T04:57:59;19.42;;;10.50;;
11131;SDS011;5620;53.570;9.718;2022-10-18T05:00:26;21.90;;;10.38;;
11131;SDS011;5620;53.570;9.718;2022-10-18T05:02:57;22.25;;;10.02;;
11131;SDS011;5620;53.570;9.718;2022-10-18T05:05:25;17.60;;;11.13;;
11131;SDS011;5620;53.570;9.718;2022-10-18T05:07:52;22.07;;;10.00;;
11131;SDS011;5620;53.570;9.718;2022-10-18T05:10:20;24.30;;;10.98;;
11131;SDS011;5620;53.570;9.718;2022-10-18T05:12:48;15.90;;;10.48;;
11131;SDS011;5620;53.570;9.718;2022-10-18T05:15:16;26.13;;;12.05;;
11131;SDS011;5620;53.570;9.718;2022-10-18T05:17:43;20.13;;;11.40;;
11131;SDS011;5620;53.570;9.718;2022-10-18T05:20:11;22.13;;;10.70;;
11131;SDS011;5620;53.570;9.718;2022-10-18T05:22:39;24.63;;;11.77;;
11131;SDS011;5620;53.570;9.718;2022-10-18T05:25:07;21.45;;;11.43;;
11131;SDS011;5620;53.570;9.718;2022-10-18T05:27:34;15.45;;;10.75;;
11131;SDS011;5620;53.570;9.718;2022-10-18T05:30:01;17.58;;;10.75;;
11131;SDS011;5620;53.570;9.718;2022-10-18T05:32:29;24.57;;;10.90;;
11131;SDS011;5620;53.570;9.718;2022-10-18T05:34:55;26.33;;;11.38;;
11131;SDS011;5620;53.570;9.718;2022-10-18T05:37:23;23.15;;;11.32;;
11131;SDS011;5620;53.570;9.718;2022-10-18T05:39:50;28.83;;;13.80;;
11131;SDS011;5620;53.570;9.718;2022-10-18T05:42:18;20.00;;;11.13;;
11131;SDS011;5620;53.570;9.718;2022-10-18T05:44:43;24.37;;;13.13;;
11131;SDS011;5620;53.570;9.718;2022-10-18T05:47:09;26.02;;;12.85;;
11131;SDS011;5620;53.570;9.718;2022-10-18T05:49:38;21.67;;;11.40;;
11131;SDS011;5620;53.570;9.718;2022-10-18T05:52:04;23.33;;;11.50;;
11131;SDS011;5620;53.570;9.718;2022-10-18T05:54:32;30.17;;;11.93;;
11131;SDS011;5620;53.570;9.718;2022-10-18T05:56:59;26.05;;;10.45;;
11131;SDS011;5620;53.570;9.718;2022-10-18T05:59:25;23.77;;;11.38;;
11131;SDS011;5620;53.570;9.718;2022-10-18T06:01:53;22.20;;;11.63;;
11131;SDS011;5620;53.570;9.718;2022-10-18T06:04:20;27.67;;;11.83;;
11131;SDS011;5620;53.570;9.718;2022-10-18T06:06:48;26.35;;;11.98;;
11131;SDS011;5620;53.570;9.718;2022-10-18T06:09:15;22.17;;;12.35;;
11131;SDS011;5620;53.570;9.718;2022-10-18T06:11:42;24.20;;;11.15;;
11131;SDS011;5620;53.570;9.718;2022-10-18T06:14:09;19.88;;;10.57;;
11131;SDS011;5620;53.570;9.718;2022-10-18T06:16:35;23.27;;;11.53;;
11131;SDS011;5620;53.570;9.718;2022-10-18T06:19:02;21.52;;;10.85;;
11131;SDS011;5620;53.570;9.718;2022-10-18T06:21:29;22.77;;;10.83;;
11131;SDS011;5620;53.570;9.718;2022-10-18T06:23:56;39.10;;;19.80;;
11131;SDS011;5620;53.570;9.718;2022-10-18T06:26:26;22.77;;;12.02;;
11131;SDS011;5620;53.570;9.718;2022-10-18T06:28:53;17.98;;;11.50;;
11131;SDS011;5620;53.570;9.718;2022-10-18T06:31:20;18.95;;;9.60;;
11131;SDS011;5620;53.570;9.718;2022-10-18T06:33:47;18.23;;;10.17;;
11131;SDS011;5620;53.570;9.718;2022-10-18T06:36:18;28.08;;;13.15;;
11131;SDS011;5620;53.570;9.718;2022-10-18T06:38:46;23.63;;;10.52;;
11131;SDS011;5620;53.570;9.718;2022-10-18T06:41:13;19.30;;;10.20;;
11131;SDS011;5620;53.570;9.718;2022-10-18T06:43:40;19.40;;;10.07;;
11131;SDS011;5620;53.570;9.718;2022-10-18T06:46:06;19.40;;;9.93;;
11131;SDS011;5620;53.570;9.718;2022-10-18T06:48:35;21.30;;;11.10;;
11131;SDS011;5620;53.570;9.718;2022-10-18T06:51:05;18.65;;;9.80;;
11131;SDS011;5620;53.570;9.718;2022-10-18T06:53:40;20.77;;;11.30;;
11131;SDS011;5620;53.570;9.718;2022-10-18T06:56:08;24.25;;;10.02;;
11131;SDS011;5620;53.570;9.718;2022-10-18T06:58:41;16.80;;;9.43;;
11131;SDS011;5620;53.570;9.718;2022-10-18T07:01:09;16.35;;;9.35;;
11131;SDS011;5620;53.570;9.718;2022-10-18T07:03:38;28.03;;;14.13;;
11131;SDS011;5620;53.570;9.718;2022-10-18T07:06:06;23.63;;;12.85;;
11131;SDS011;5620;53.570;9.718;2022-10-18T07:08:35;35.15;;;17.42;;
11131;SDS011;5620;53.570;9.718;2022-10-18T07:11:01;20.63;;;11.57;;
11131;SDS011;5620;53.570;9.718;2022-10-18T07:13:30;22.00;;;11.27;;
11131;SDS011;5620;53.570;9.718;2022-10-18T07:16:04;19.47;;;10.87;;
11131;SDS011;5620;53.570;9.718;2022-10-18T07:18:31;27.55;;;10.90;;
11131;SDS011;5620;53.570;9.718;2022-10-18T07:21:04;18.45;;;10.43;;
11131;SDS011;5620;53.570;9.718;2022-10-18T07:23:38;21.48;;;10.23;;
11131;SDS011;5620;53.570;9.718;2022-10-18T07:26:18;19.13;;;9.38;;
11131;SDS011;5620;53.570;9.718;2022-10-18T07:28:54;17.27;;;9.47;;
11131;SDS011;5620;53.570;9.718;2022-10-18T07:31:26;21.77;;;9.38;;
11131;SDS011;5620;53.570;9.718;2022-10-18T07:33:53;16.55;;;9.40;;
11131;SDS011;5620;53.570;9.718;2022-10-18T07:36:19;20.03;;;9.30;;
11131;SDS011;5620;53.570;9.718;2022-10-18T07:38:46;20.67;;;9.48;;
11131;SDS011;5620;53.570;9.718;2022-10-18T07:41:21;19.48;;;10.93;;
11131;SDS011;5620;53.570;9.718;2022-10-18T07:43:48;14.53;;;9.40;;
11131;SDS011;5620;53.570;9.718;2022-10-18T07:46:17;18.23;;;9.98;;
11131;SDS011;5620;53.570;9.718;2022-10-18T07:48:44;13.77;;;8.68;;
11131;SDS011;5620;53.570;9.718;2022-10-18T07:51:12;15.38;;;9.15;;
11131;SDS011;5620;53.570;9.718;2022-10-18T07:53:40;13.40;;;9.45;;
11131;SDS011;5620;53.570;9.718;2022-10-18T07:56:10;17.80;;;10.37;;
11131;SDS011;5620;53.570;9.718;2022-10-18T07:58:38;15.85;;;9.73;;
11131;SDS011;5620;53.570;9.718;2022-10-18T08:01:06;17.00;;;9.25;;
11131;SDS011;5620;53.570;9.718;2022-10-18T08:03:35;16.13;;;8.85;;
11131;SDS011;5620;53.570;9.718;2022-10-18T08:06:03;17.08;;;8.85;;
11131;SDS011;5620;53.570;9.718;2022-10-18T08:08:31;23.97;;;9.97;;
11131;SDS011;5620;53.570;9.718;2022-10-18T08:16:27;17.63;;;9.60;;
11131;SDS011;5620;53.570;9.718;2022-10-18T08:18:58;12.73;;;7.72;;
11131;SDS011;5620;53.570;9.718;2022-10-18T08:21:25;19.57;;;9.73;;
11131;SDS011;5620;53.570;9.718;2022-10-18T08:23:52;15.90;;;9.95;;
11131;SDS011;5620;53.570;9.718;2022-10-18T08:26:19;20.75;;;9.15;;
11131;SDS011;5620;53.570;9.718;2022-10-18T08:28:46;12.70;;;7.60;;
11131;SDS011;5620;53.570;9.718;2022-10-18T08:31:13;18.40;;;8.73;;
11131;SDS011;5620;53.570;9.718;2022-10-18T08:33:41;12.53;;;8.30;;
11131;SDS011;5620;53.570;9.718;2022-10-18T08:36:07;14.95;;;8.38;;
11131;SDS011;5620;53.570;9.718;2022-10-18T08:38:35;14.87;;;8.60;;
11131;SDS011;5620;53.570;9.718;2022-10-18T08:46:59;14.40;;;8.55;;
11131;SDS011;5620;53.570;9.718;2022-10-18T08:49:39;16.55;;;8.30;;
11131;SDS011;5620;53.570;9.718;2022-10-18T08:52:15;22.77;;;9.03;;
11131;SDS011;5620;53.570;9.718;2022-10-18T08:55:02;23.77;;;11.70;;
11131;SDS011;5620;53.570;9.718;2022-10-18T08:57:50;12.15;;;7.93;;
11131;SDS011;5620;53.570;9.718;2022-10-18T09:00:20;11.60;;;7.63;;
11131;SDS011;5620;53.570;9.718;2022-10-18T09:06:01;13.57;;;7.77;;
11131;SDS011;5620;53.570;9.718;2022-10-18T09:23:45;17.50;;;7.65;;
11131;SDS011;5620;53.570;9.718;2022-10-18T09:26:19;15.43;;;8.55;;
11131;SDS011;5620;53.570;9.718;2022-10-18T09:32:05;13.40;;;7.68;;
11131;SDS011;5620;53.570;9.718;2022-10-18T09:35:02;21.87;;;7.90;;
11131;SDS011;5620;53.570;9.718;2022-10-18T09:37:47;12.55;;;7.85;;
11131;SDS011;5620;53.570;9.718;2022-10-18T09:40:27;11.05;;;7.18;;
11131;SDS011;5620;53.570;9.718;2022-10-18T09:42:59;18.13;;;8.82;;
11131;SDS011;5620;53.570;9.718;2022-10-18T09:45:42;21.15;;;8.95;;
11131;SDS011;5620;53.570;9.718;2022-10-18T09:48:16;19.17;;;8.17;;
11131;SDS011;5620;53.570;9.718;2022-10-18T09:53:56;12.23;;;7.32;;
11131;SDS011;5620;53.570;9.718;2022-10-18T09:56:29;21.10;;;7.47;;
11131;SDS011;5620;53.570;9.718;2022-10-18T09:59:01;19.15;;;7.78;;
11131;SDS011;5620;53.570;9.718;2022-10-18T10:01:28;13.00;;;7.93;;
11131;SDS011;5620;53.570;9.718;2022-10-18T10:03:57;12.48;;;7.25;;
11131;SDS011;5620;53.570;9.718;2022-10-18T10:06:25;14.15;;;7.97;;
11131;SDS011;5620;53.570;9.718;2022-10-18T10:09:05;16.92;;;7.25;;
11131;SDS011;5620;53.570;9.718;2022-10-18T10:11:48;16.77;;;7.97;;
11131;SDS011;5620;53.570;9.718;2022-10-18T10:14:16;18.03;;;7.07;;
11131;SDS011;5620;53.570;9.718;2022-10-18T10:19:38;13.18;;;6.35;;
11131;SDS011;5620;53.570;9.718;2022-10-18T10:22:30;13.90;;;7.40;;
11131;SDS011;5620;53.570;9.718;2022-10-18T10:24:57;14.82;;;7.85;;
11131;SDS011;5620;53.570;9.718;2022-10-18T10:27:27;15.37;;;7.23;;
11131;SDS011;5620;53.570;9.718;2022-10-18T10:30:43;18.23;;;5.68;;
11131;SDS011;5620;53.570;9.718;2022-10-18T10:33:03;13.88;;;5.85;;
11131;SDS011;5620;53.570;9.718;2022-10-18T10:35:34;12.52;;;7.93;;
11131;SDS011;5620;53.570;9.718;2022-10-18T10:38:03;10.55;;;5.20;;
11131;SDS011;5620;53.570;9.718;2022-10-18T10:40:49;8.20;;;5.37;;
11131;SDS011;5620;53.570;9.718;2022-10-18T10:43:16;14.73;;;6.18;;
11131;SDS011;5620;53.570;9.718;2022-10-18T10:48:33;6.90;;;4.15;;
11131;SDS011;5620;53.570;9.718;2022-10-18T10:51:05;6.22;;;4.15;;
11131;SDS011;5620;53.570;9.718;2022-10-18T10:53:37;6.50;;;3.50;;
11131;SDS011;5620;53.570;9.718;2022-10-18T10:56:28;11.43;;;4.20;;
11131;SDS011;5620;53.570;9.718;2022-10-18T10:59:00;10.68;;;4.07;;
11131;SDS011;5620;53.570;9.718;2022-10-18T11:01:43;6.85;;;3.75;;
11131;SDS011;5620;53.570;9.718;2022-10-18T11:04:26;9.27;;;3.17;;
11131;SDS011;5620;53.570;9.718;2022-10-18T11:12:32;12.88;;;4.60;;
11131;SDS011;5620;53.570;9.718;2022-10-18T11:20:33;8.83;;;3.17;;
11131;SDS011;5620;53.570;9.718;2022-10-18T11:23:09;16.70;;;4.40;;
11131;SDS011;5620;53.570;9.718;2022-10-18T11:34:24;9.60;;;3.17;;
11131;SDS011;5620;53.570;9.718;2022-10-18T11:37:22;7.55;;;4.05;;
11131;SDS011;5620;53.570;9.718;2022-10-18T11:43:09;9.25;;;4.38;;
11131;SDS011;5620;53.570;9.718;2022-10-18T11:45:39;13.25;;;5.20;;
11131;SDS011;5620;53.570;9.718;2022-10-18T11:50:53;8.13;;;3.22;;
11131;SDS011;5620;53.570;9.718;2022-10-18T11:56:52;10.90;;;3.20;;
11131;SDS011;5620;53.570;9.718;2022-10-18T11:59:27;5.90;;;2.45;;
11131;SDS011;5620;53.570;9.718;2022-10-18T12:05:16;8.88;;;2.05;;
11131;SDS011;5620;53.570;9.718;2022-10-18T12:07:48;3.85;;;1.15;;
11131;SDS011;5620;53.570;9.718;2022-10-18T12:10:40;9.55;;;1.98;;
11131;SDS011;5620;53.570;9.718;2022-10-18T12:13:11;10.80;;;1.80;;
11131;SDS011;5620;53.570;9.718;2022-10-18T12:15:46;7.30;;;1.27;;
11131;SDS011;5620;53.570;9.718;2022-10-18T12:18:16;13.00;;;1.92;;
11131;SDS011;5620;53.570;9.718;2022-10-18T12:20:46;4.00;;;0.93;;
11131;SDS011;5620;53.570;9.718;2022-10-18T12:23:20;11.82;;;1.35;;
11131;SDS011;5620;53.570;9.718;2022-10-18T12:26:09;6.50;;;1.85;;
11131;SDS011;5620;53.570;9.718;2022-10-18T12:28:48;13.97;;;2.97;;
11131;SDS011;5620;53.570;9.718;2022-10-18T12:34:24;10.90;;;1.75;;
11131;SDS011;5620;53.570;9.718;2022-10-18T12:42:49;9.00;;;1.33;;
11131;SDS011;5620;53.570;9.718;2022-10-18T12:45:30;4.30;;;1.98;;
11131;SDS011;5620;53.570;9.718;2022-10-18T12:48:25;3.80;;;1.00;;
11131;SDS011;5620;53.570;9.718;2022-10-18T12:50:57;7.97;;;1.08;;
11131;SDS011;5620;53.570;9.718;2022-10-18T12:53:32;11.07;;;1.70;;
11131;SDS011;5620;53.570;9.718;2022-10-18T13:09:32;5.63;;;1.17;;
11131;SDS011;5620;53.570;9.718;2022-10-18T13:14:58;9.43;;;0.90;;
11131;SDS011;5620;53.570;9.718;2022-10-18T13:17:58;8.52;;;1.35;;
11131;SDS011;5620;53.570;9.718;2022-10-18T13:26:27;3.97;;;1.20;;
11131;SDS011;5620;53.570;9.718;2022-10-18T13:41:04;4.03;;;1.00;;
11131;SDS011;5620;53.570;9.718;2022-10-18T13:49:40;6.00;;;1.27;;
11131;SDS011;5620;53.570;9.718;2022-10-18T14:04:06;6.20;;;1.50;;
11131;SDS011;5620;53.570;9.718;2022-10-18T14:06:59;9.88;;;1.73;;
11131;SDS011;5620;53.570;9.718;2022-10-18T14:09:33;3.35;;;1.30;;
11131;SDS011;5620;53.570;9.718;2022-10-18T14:12:37;6.63;;;1.45;;
11131;SDS011;5620;53.570;9.718;2022-10-18T14:15:14;9.88;;;1.73;;
11131;SDS011;5620;53.570;9.718;2022-10-18T14:17:48;3.17;;;0.97;;
11131;SDS011;5620;53.570;9.718;2022-10-18T14:20:39;12.80;;;1.15;;
11131;SDS011;5620;53.570;9.718;2022-10-18T14:23:13;7.60;;;1.27;;
11131;SDS011;5620;53.570;9.718;2022-10-18T14:25:41;6.57;;;1.48;;
11131;SDS011;5620;53.570;9.718;2022-10-18T14:30:58;6.93;;;1.70;;
11131;SDS011;5620;53.570;9.718;2022-10-18T14:33:44;7.43;;;1.95;;
11131;SDS011;5620;53.570;9.718;2022-10-18T14:36:22;5.93;;;1.42;;
11131;SDS011;5620;53.570;9.718;2022-10-18T14:41:51;3.47;;;0.90;;
11131;SDS011;5620;53.570;9.718;2022-10-18T14:44:20;4.87;;;1.20;;
11131;SDS011;5620;53.570;9.718;2022-10-18T14:47:01;8.63;;;2.17;;
11131;SDS011;5620;53.570;9.718;2022-10-18T14:49:41;7.68;;;0.98;;
11131;SDS011;5620;53.570;9.718;2022-10-18T14:52:09;4.75;;;1.25;;
11131;SDS011;5620;53.570;9.718;2022-10-18T14:54:38;8.10;;;1.70;;
11131;SDS011;5620;53.570;9.718;2022-10-18T14:57:04;5.43;;;1.53;;
11131;SDS011;5620;53.570;9.718;2022-10-18T14:59:38;7.53;;;1.30;;
11131;SDS011;5620;53.570;9.718;2022-10-18T15:02:15;9.05;;;2.78;;
11131;SDS011;5620;53.570;9.718;2022-10-18T15:04:59;6.55;;;1.85;;
11131;SDS011;5620;53.570;9.718;2022-10-18T15:07:34;13.02;;;1.42;;
11131;SDS011;5620;53.570;9.718;2022-10-18T15:10:03;8.27;;;1.67;;
11131;SDS011;5620;53.570;9.718;2022-10-18T15:12:30;5.45;;;1.30;;
11131;SDS011;5620;53.570;9.718;2022-10-18T15:14:57;4.55;;;0.90;;
11131;SDS011;5620;53.570;9.718;2022-10-18T15:17:28;8.18;;;1.25;;
11131;SDS011;5620;53.570;9.718;2022-10-18T15:20:00;6.82;;;1.20;;
11131;SDS011;5620;53.570;9.718;2022-10-18T15:22:47;5.30;;;1.40;;
11131;SDS011;5620;53.570;9.718;2022-10-18T15:25:16;10.07;;;2.00;;
11131;SDS011;5620;53.570;9.718;2022-10-18T15:27:43;8.90;;;1.30;;
11131;SDS011;5620;53.570;9.718;2022-10-18T15:30:23;7.23;;;2.33;;
11131;SDS011;5620;53.570;9.718;2022-10-18T15:35:46;31.90;;;11.82;;
11131;SDS011;5620;53.570;9.718;2022-10-18T15:40:46;7.07;;;1.35;;
11131;SDS011;5620;53.570;9.718;2022-10-18T15:45:51;7.30;;;2.13;;
11131;SDS011;5620;53.570;9.718;2022-10-18T15:48:22;12.98;;;1.33;;
11131;SDS011;5620;53.570;9.718;2022-10-18T15:51:06;11.95;;;1.98;;
11131;SDS011;5620;53.570;9.718;2022-10-18T15:59:02;12.30;;;1.58;;
11131;SDS011;5620;53.570;9.718;2022-10-18T16:04:00;7.28;;;1.60;;
11131;SDS011;5620;53.570;9.718;2022-10-18T16:06:33;7.63;;;2.10;;
11131;SDS011;5620;53.570;9.718;2022-10-18T16:09:00;9.00;;;1.27;;
11131;SDS011;5620;53.570;9.718;2022-10-18T16:11:25;11.60;;;2.05;;
11131;SDS011;5620;53.570;9.718;2022-10-18T16:13:52;24.15;;;3.35;;
11131;SDS011;5620;53.570;9.718;2022-10-18T16:16:23;2.53;;;0.93;;
11131;SDS011;5620;53.570;9.718;2022-10-18T16:18:51;7.32;;;1.00;;
11131;SDS011;5620;53.570;9.718;2022-10-18T16:21:38;7.75;;;1.65;;
11131;SDS011;5620;53.570;9.718;2022-10-18T16:24:15;7.43;;;1.33;;
11131;SDS011;5620;53.570;9.718;2022-10-18T16:26:42;5.13;;;0.80;;
11131;SDS011;5620;53.570;9.718;2022-10-18T16:29:14;8.10;;;1.20;;
11131;SDS011;5620;53.570;9.718;2022-10-18T16:31:41;7.20;;;1.20;;
11131;SDS011;5620;53.570;9.718;2022-10-18T16:34:08;6.65;;;1.58;;
11131;SDS011;5620;53.570;9.718;2022-10-18T16:36:36;10.20;;;1.60;;
11131;SDS011;5620;53.570;9.718;2022-10-18T16:39:04;11.25;;;1.77;;
11131;SDS011;5620;53.570;9.718;2022-10-18T16:41:32;10.35;;;1.25;;
11131;SDS011;5620;53.570;9.718;2022-10-18T16:44:01;3.97;;;1.00;;
11131;SDS011;5620;53.570;9.718;2022-10-18T16:46:27;7.65;;;1.27;;
11131;SDS011;5620;53.570;9.718;2022-10-18T16:48:57;9.00;;;1.90;;
11131;SDS011;5620;53.570;9.718;2022-10-18T16:51:23;5.93;;;1.15;;
11131;SDS011;5620;53.570;9.718;2022-10-18T16:53:50;13.98;;;1.50;;
11131;SDS011;5620;53.570;9.718;2022-10-18T16:56:27;8.00;;;1.60;;
11131;SDS011;5620;53.570;9.718;2022-10-18T16:58:54;10.50;;;1.83;;
11131;SDS011;5620;53.570;9.718;2022-10-18T17:01:22;8.43;;;2.45;;
11131;SDS011;5620;53.570;9.718;2022-10-18T17:03:49;4.38;;;1.33;;
11131;SDS011;5620;53.570;9.718;2022-10-18T17:06:26;9.05;;;1.42;;
11131;SDS011;5620;53.570;9.718;2022-10-18T17:08:55;4.85;;;1.10;;
11131;SDS011;5620;53.570;9.718;2022-10-18T17:11:23;4.93;;;1.67;;
11131;SDS011;5620;53.570;9.718;2022-10-18T17:13:54;8.15;;;1.40;;
11131;SDS011;5620;53.570;9.718;2022-10-18T17:16:31;8.63;;;2.00;;
11131;SDS011;5620;53.570;9.718;2022-10-18T17:18:59;13.20;;;1.48;;
11131;SDS011;5620;53.570;9.718;2022-10-18T17:21:28;12.38;;;2.30;;
11131;SDS011;5620;53.570;9.718;2022-10-18T17:23:54;5.30;;;1.17;;
11131;SDS011;5620;53.570;9.718;2022-10-18T17:26:22;12.63;;;1.60;;
11131;SDS011;5620;53.570;9.718;2022-10-18T17:28:51;3.65;;;1.40;;
11131;SDS011;5620;53.570;9.718;2022-10-18T17:31:20;2.70;;;0.88;;
11131;SDS011;5620;53.570;9.718;2022-10-18T17:33:48;4.32;;;1.30;;
11131;SDS011;5620;53.570;9.718;2022-10-18T17:36:15;4.77;;;1.13;;
11131;SDS011;5620;53.570;9.718;2022-10-18T17:38:41;9.55;;;1.40;;
11131;SDS011;5620;53.570;9.718;2022-10-18T17:41:08;9.80;;;1.50;;
11131;SDS011;5620;53.570;9.718;2022-10-18T17:43:37;9.77;;;1.52;;
11131;SDS011;5620;53.570;9.718;2022-10-18T17:46:04;12.02;;;1.65;;
11131;SDS011;5620;53.570;9.718;2022-10-18T17:48:32;11.63;;;1.40;;
11131;SDS011;5620;53.570;9.718;2022-10-18T17:50:57;6.80;;;1.48;;
11131;SDS011;5620;53.570;9.718;2022-10-18T17:53:25;7.22;;;1.17;;
11131;SDS011;5620;53.570;9.718;2022-10-18T17:55:56;1.42;;;0.70;;
11131;SDS011;5620;53.570;9.718;2022-10-18T17:58:22;5.15;;;0.80;;
11131;SDS011;5620;53.570;9.718;2022-10-18T18:00:49;4.63;;;0.87;;
11131;SDS011;5620;53.570;9.718;2022-10-18T18:03:16;4.40;;;0.80;;
11131;SDS011;5620;53.570;9.718;2022-10-18T18:05:41;2.03;;;0.63;;
11131;SDS011;5620;53.570;9.718;2022-10-18T18:08:07;10.30;;;1.70;;
11131;SDS011;5620;53.570;9.718;2022-10-18T18:10:34;6.82;;;1.15;;
11131;SDS011;5620;53.570;9.718;2022-10-18T18:13:00;5.25;;;1.00;;
11131;SDS011;5620;53.570;9.718;2022-10-18T18:15:26;5.47;;;1.25;;
11131;SDS011;5620;53.570;9.718;2022-10-18T18:17:53;15.88;;;1.83;;
11131;SDS011;5620;53.570;9.718;2022-10-18T18:20:20;9.68;;;1.52;;
11131;SDS011;5620;53.570;9.718;2022-10-18T18:22:49;14.63;;;1.60;;
11131;SDS011;5620;53.570;9.718;2022-10-18T18:25:16;5.10;;;1.30;;